createdAt,value
2018-04-24T00:00:46.076Z,6.93
2018-04-24T00:03:13.484Z,5.87
2018-04-24T00:05:40.915Z,6.73
2018-04-24T00:08:08.312Z,6.20
2018-04-24T00:10:35.719Z,4.73
2018-04-24T00:13:03.144Z,7.63
2018-04-24T00:15:30.564Z,6.07
2018-04-24T00:17:57.976Z,6.50
2018-04-24T00:20:25.406Z,9.73
2018-04-24T00:22:52.814Z,9.20
2018-04-24T00:25:20.229Z,8.93
2018-04-24T00:27:47.642Z,8.20
2018-04-24T00:30:15.081Z,7.30
2018-04-24T00:32:42.523Z,10.33
2018-04-24T00:35:09.939Z,8.47
2018-04-24T00:37:37.343Z,10.30
2018-04-24T00:40:04.770Z,13.00
2018-04-24T00:42:32.184Z,14.13
2018-04-24T00:44:59.640Z,17.93
2018-04-24T00:47:27.080Z,15.90
2018-04-24T00:49:54.795Z,12.17
2018-04-24T00:52:22.195Z,8.70
2018-04-24T00:54:49.602Z,9.30
2018-04-24T00:57:17.020Z,9.60
2018-04-24T00:59:44.432Z,9.60
2018-04-24T01:02:11.866Z,8.57
2018-04-24T01:04:39.272Z,9.60
2018-04-24T01:07:06.972Z,9.03
2018-04-24T01:09:34.372Z,8.63
2018-04-24T01:12:01.787Z,10.77
2018-04-24T01:14:29.207Z,11.20
2018-04-24T01:16:56.619Z,11.67
2018-04-24T01:19:24.067Z,12.70
2018-04-24T01:21:51.476Z,9.60
2018-04-24T01:24:18.916Z,10.10
2018-04-24T01:26:46.332Z,10.07
2018-04-24T01:29:13.756Z,12.47
2018-04-24T01:31:41.174Z,9.47
2018-04-24T01:34:08.621Z,9.20
2018-04-24T01:36:36.028Z,12.20
2018-04-24T01:39:03.432Z,10.87
2018-04-24T01:41:30.860Z,10.27
2018-04-24T01:43:58.270Z,12.07
2018-04-24T01:46:25.756Z,12.17
2018-04-24T01:48:53.169Z,11.03
2018-04-24T01:51:20.590Z,16.97
2018-04-24T01:53:48.039Z,11.80
2018-04-24T01:56:15.463Z,14.47
2018-04-24T01:58:42.896Z,11.70
2018-04-24T02:01:10.326Z,15.63
2018-04-24T02:03:37.963Z,16.87
2018-04-24T02:06:05.369Z,15.00
2018-04-24T02:08:32.783Z,15.47
2018-04-24T02:11:00.207Z,13.53
2018-04-24T02:13:27.611Z,14.37
2018-04-24T02:15:55.217Z,15.33
2018-04-24T02:18:22.635Z,13.83
2018-04-24T02:20:50.039Z,14.60
2018-04-24T02:23:17.476Z,15.03
2018-04-24T02:25:44.883Z,17.33
2018-04-24T02:28:12.307Z,15.43
2018-04-24T02:30:39.720Z,17.60
2018-04-24T02:33:07.155Z,19.03
2018-04-24T02:35:34.662Z,19.13
2018-04-24T02:38:01.995Z,19.13
2018-04-24T02:40:29.523Z,22.73
2018-04-24T02:42:56.840Z,20.37
2018-04-24T02:45:24.432Z,25.43
2018-04-24T02:47:51.851Z,21.67
2018-04-24T02:50:19.259Z,23.73
2018-04-24T02:52:46.694Z,21.93
2018-04-24T02:55:14.146Z,21.80
2018-04-24T02:57:41.576Z,19.00
2018-04-24T03:00:08.999Z,16.37
2018-04-24T03:02:36.436Z,16.43
2018-04-24T03:05:03.838Z,17.97
2018-04-24T03:07:31.284Z,15.73
2018-04-24T03:09:58.702Z,15.03
2018-04-24T03:12:26.128Z,13.93
2018-04-24T03:14:53.540Z,14.00
2018-04-24T03:17:21.111Z,13.07
2018-04-24T03:19:48.520Z,15.27
2018-04-24T03:22:15.949Z,15.70
2018-04-24T03:24:43.439Z,18.37
2018-04-24T03:27:10.877Z,21.00
2018-04-24T03:29:38.283Z,17.97
2018-04-24T03:32:05.724Z,16.47
2018-04-24T03:34:33.135Z,16.97
2018-04-24T03:37:00.899Z,16.77
2018-04-24T03:39:28.331Z,17.40
2018-04-24T03:41:55.739Z,21.23
2018-04-24T03:44:23.171Z,18.77
2018-04-24T03:46:50.591Z,17.90
2018-04-24T03:49:18.040Z,18.40
2018-04-24T03:51:45.449Z,15.90
2018-04-24T03:54:12.928Z,18.33
2018-04-24T03:56:40.341Z,15.10
2018-04-24T03:59:07.775Z,18.10
2018-04-24T04:01:35.195Z,18.57
2018-04-24T04:04:02.632Z,14.87
2018-04-24T04:06:30.349Z,15.93
2018-04-24T04:08:57.758Z,15.63
2018-04-24T04:11:25.175Z,16.17
2018-04-24T04:13:52.617Z,19.30
2018-04-24T04:16:20.422Z,13.73
2018-04-24T04:18:59.496Z,18.70
2018-04-24T04:24:49.757Z,12.23
2018-04-24T04:27:17.169Z,15.07
2018-04-24T04:29:44.944Z,13.50
2018-04-24T04:32:12.362Z,13.07
2018-04-24T04:34:39.777Z,11.97
2018-04-24T04:37:07.216Z,10.83
2018-04-24T04:39:34.623Z,12.20
2018-04-24T04:42:02.056Z,12.47
2018-04-24T04:44:29.467Z,11.60
2018-04-24T04:46:56.897Z,12.67
2018-04-24T04:49:24.320Z,13.47
2018-04-24T04:51:51.732Z,10.33
2018-04-24T04:54:19.158Z,10.50
2018-04-24T04:56:46.561Z,12.87
2018-04-24T04:59:14.001Z,8.50
2018-04-24T05:01:41.408Z,9.63
2018-04-24T05:04:09.120Z,10.73
2018-04-24T05:06:36.515Z,8.47
2018-04-24T05:09:03.928Z,10.17
2018-04-24T05:11:31.352Z,10.27
2018-04-24T05:13:59.096Z,10.83
2018-04-24T05:16:26.504Z,9.53
2018-04-24T05:18:53.907Z,8.93
2018-04-24T05:21:21.337Z,9.67
2018-04-24T05:23:48.756Z,9.53
2018-04-24T05:26:16.161Z,6.93
2018-04-24T05:28:43.578Z,8.00
2018-04-24T05:31:11.257Z,9.23
2018-04-24T05:33:38.679Z,7.17
2018-04-24T05:36:06.087Z,8.03
2018-04-24T05:38:33.504Z,7.97
2018-04-24T05:41:00.910Z,6.43
2018-04-24T05:43:28.424Z,9.20
2018-04-24T05:45:55.827Z,6.83
2018-04-24T05:48:23.251Z,6.80
2018-04-24T05:50:50.661Z,7.40
2018-04-24T05:53:18.101Z,8.87
2018-04-24T05:55:45.495Z,8.40
2018-04-24T05:58:12.934Z,10.53
2018-04-24T06:00:40.717Z,6.50
2018-04-24T06:03:08.159Z,6.27
2018-04-24T06:05:35.556Z,9.70
2018-04-24T06:08:02.985Z,8.53
2018-04-24T06:10:30.706Z,11.27
2018-04-24T06:12:58.132Z,9.67
2018-04-24T06:15:25.547Z,7.93
2018-04-24T06:17:52.966Z,6.90
2018-04-24T06:20:20.692Z,7.20
2018-04-24T06:22:48.108Z,7.50
2018-04-24T06:25:15.516Z,8.30
2018-04-24T06:27:42.935Z,8.47
2018-04-24T06:30:10.349Z,6.63
2018-04-24T06:32:37.805Z,8.87
2018-04-24T06:35:05.223Z,15.23
2018-04-24T06:37:32.629Z,8.07
2018-04-24T06:40:00.292Z,11.20
2018-04-24T06:42:27.692Z,8.90
2018-04-24T06:44:55.092Z,10.17
2018-04-24T06:47:22.517Z,8.20
2018-04-24T06:49:50.210Z,9.80
2018-04-24T06:52:17.650Z,8.53
2018-04-24T06:54:45.082Z,8.83
2018-04-24T06:57:12.590Z,8.83
2018-04-24T06:59:39.995Z,9.00
2018-04-24T07:02:07.426Z,9.50
2018-04-24T07:04:35.552Z,7.97
2018-04-24T07:07:03.076Z,11.33
2018-04-24T07:09:30.487Z,9.83
2018-04-24T07:11:57.927Z,8.63
2018-04-24T07:14:26.355Z,11.03
2018-04-24T07:16:53.866Z,7.30
2018-04-24T07:19:21.699Z,13.73
2018-04-24T07:21:49.099Z,9.23
2018-04-24T07:24:16.971Z,8.83
2018-04-24T07:26:44.382Z,10.87
2018-04-24T07:29:11.780Z,8.67
2018-04-24T07:31:39.793Z,7.83
2018-04-24T07:34:07.202Z,11.87
2018-04-24T07:36:34.629Z,9.33
2018-04-24T07:39:02.047Z,13.60
2018-04-24T07:41:29.977Z,10.73
2018-04-24T07:43:57.397Z,9.37
2018-04-24T07:46:24.817Z,8.73
2018-04-24T07:48:52.448Z,10.23
2018-04-24T07:51:19.867Z,10.80
2018-04-24T07:53:47.280Z,18.13
2018-04-24T07:56:14.724Z,12.53
2018-04-24T07:58:42.151Z,9.40
2018-04-24T08:01:09.592Z,9.07
2018-04-24T08:03:36.991Z,11.00
2018-04-24T08:06:04.447Z,12.03
2018-04-24T08:08:31.880Z,13.67
2018-04-24T08:10:59.310Z,12.93
2018-04-24T08:13:27.235Z,13.53
2018-04-24T08:15:54.645Z,12.73
2018-04-24T08:18:22.052Z,9.30
2018-04-24T08:20:49.483Z,14.60
2018-04-24T08:23:16.941Z,14.10
2018-04-24T08:25:44.380Z,13.50
2018-04-24T08:28:11.796Z,11.93
2018-04-24T08:30:39.246Z,10.47
2018-04-24T08:33:06.681Z,13.17
2018-04-24T08:35:34.134Z,15.10
2018-04-24T08:38:01.553Z,12.87
2018-04-24T08:40:28.963Z,13.10
2018-04-24T08:42:57.648Z,16.70
2018-04-24T08:45:25.069Z,12.80
2018-04-24T08:47:52.593Z,8.73
2018-04-24T08:50:19.956Z,12.47
2018-04-24T08:52:47.366Z,12.10
2018-04-24T08:55:14.816Z,12.17
2018-04-24T08:57:42.283Z,15.10
2018-04-24T09:00:09.687Z,10.70
2018-04-24T09:02:37.101Z,11.50
2018-04-24T09:05:04.845Z,11.07
2018-04-24T09:07:32.252Z,11.30
2018-04-24T09:09:59.659Z,9.70
2018-04-24T09:12:27.150Z,11.60
2018-04-24T09:14:54.595Z,14.40
2018-04-24T09:17:22.018Z,10.03
2018-04-24T09:19:49.560Z,11.73
2018-04-24T09:22:17.027Z,13.67
2018-04-24T09:24:44.436Z,14.60
2018-04-24T09:27:12.012Z,15.73
2018-04-24T09:29:39.433Z,14.93
2018-04-24T09:32:07.006Z,14.53
2018-04-24T09:34:34.503Z,12.83
2018-04-24T09:37:01.984Z,12.40
2018-04-24T09:39:29.731Z,14.23
2018-04-24T09:41:58.146Z,14.83
2018-04-24T09:44:25.580Z,12.20
2018-04-24T09:46:53.012Z,14.50
2018-04-24T09:49:20.463Z,14.17
2018-04-24T09:51:48.219Z,16.90
2018-04-24T09:54:15.653Z,17.23
2018-04-24T09:56:43.279Z,17.87
2018-04-24T09:59:11.555Z,15.57
2018-04-24T10:01:39.886Z,16.37
2018-04-24T10:04:07.340Z,17.30
2018-04-24T10:06:34.760Z,16.07
2018-04-24T10:09:02.303Z,16.47
2018-04-24T10:11:29.704Z,18.67
2018-04-24T10:13:57.451Z,19.93
2018-04-24T10:16:24.881Z,19.03
2018-04-24T10:18:52.301Z,16.67
2018-04-24T10:21:19.722Z,16.30
2018-04-24T10:23:47.580Z,16.17
2018-04-24T10:26:15.035Z,16.60
2018-04-24T10:28:42.452Z,16.60
2018-04-24T10:31:10.420Z,15.47
2018-04-24T10:33:37.845Z,17.67
2018-04-24T10:36:05.275Z,18.00
2018-04-24T10:38:32.708Z,22.10
2018-04-24T10:41:00.141Z,17.90
2018-04-24T10:43:27.552Z,19.57
2018-04-24T10:45:54.983Z,18.03
2018-04-24T10:48:22.892Z,18.70
2018-04-24T10:50:50.325Z,18.13
2018-04-24T10:53:17.728Z,18.30
2018-04-24T10:55:45.259Z,17.27
2018-04-24T10:58:12.680Z,18.90
2018-04-24T11:00:40.571Z,18.33
2018-04-24T11:03:08.024Z,16.80
2018-04-24T11:05:35.436Z,18.10
2018-04-24T11:08:02.879Z,18.33
2018-04-24T11:10:30.281Z,18.50
2018-04-24T11:12:58.969Z,19.73
2018-04-24T11:15:26.398Z,19.00
2018-04-24T11:17:53.832Z,18.60
2018-04-24T11:20:21.432Z,17.20
2018-04-24T11:22:48.843Z,18.40
2018-04-24T11:25:16.357Z,18.67
2018-04-24T11:27:43.811Z,20.40
2018-04-24T11:30:11.312Z,21.50
2018-04-24T11:32:38.997Z,23.13
2018-04-24T11:35:06.428Z,22.63
2018-04-24T11:37:33.845Z,23.73
2018-04-24T11:40:01.306Z,21.27
2018-04-24T11:42:28.756Z,23.30
2018-04-24T11:44:56.184Z,23.53
2018-04-24T11:47:23.936Z,22.17
2018-04-24T11:49:51.368Z,22.13
2018-04-24T11:52:18.857Z,24.17
2018-04-24T11:54:46.342Z,22.33
2018-04-24T11:57:14.684Z,22.63
2018-04-24T11:59:42.115Z,22.40
2018-04-24T12:02:09.748Z,21.03
2018-04-24T12:04:37.165Z,21.37
2018-04-24T12:07:05.018Z,23.53
2018-04-24T12:09:32.441Z,21.57
2018-04-24T12:11:59.867Z,21.37
2018-04-24T12:14:27.456Z,21.47
2018-04-24T12:16:54.884Z,22.03
2018-04-24T12:19:22.331Z,21.60
2018-04-24T12:21:49.740Z,21.43
2018-04-24T12:24:18.309Z,24.67
2018-04-24T12:26:45.716Z,21.60
2018-04-24T12:29:13.135Z,20.20
2018-04-24T12:31:40.576Z,30.17
2018-04-24T12:34:08.001Z,22.47
2018-04-24T12:36:35.487Z,25.33
2018-04-24T12:39:02.928Z,23.03
2018-04-24T12:41:30.344Z,24.80
2018-04-24T12:43:58.094Z,24.40
2018-04-24T12:46:25.516Z,23.97
2018-04-24T12:48:52.965Z,22.27
2018-04-24T12:51:20.422Z,23.00
2018-04-24T12:53:47.862Z,21.83
2018-04-24T12:56:15.331Z,21.07
2018-04-24T12:58:42.751Z,20.00
2018-04-24T13:01:10.567Z,19.67
2018-04-24T13:03:37.993Z,20.27
2018-04-24T13:06:05.481Z,18.70
2018-04-24T13:08:32.922Z,18.27
2018-04-24T13:11:00.375Z,20.00
2018-04-24T13:13:28.223Z,23.83
2018-04-24T13:15:55.628Z,27.13
2018-04-24T13:18:23.369Z,31.57
2018-04-24T13:20:50.785Z,27.97
2018-04-24T13:23:18.196Z,27.27
2018-04-24T13:25:45.704Z,29.70
2018-04-24T13:28:13.057Z,29.90
2018-04-24T13:30:40.465Z,34.93
2018-04-24T13:33:08.303Z,32.27
2018-04-24T13:35:35.712Z,32.77
2018-04-24T13:38:03.133Z,32.73
2018-04-24T13:40:30.634Z,32.73
2018-04-24T13:42:58.088Z,35.10
2018-04-24T13:45:25.512Z,36.30
2018-04-24T13:47:52.928Z,34.20
2018-04-24T13:50:20.360Z,32.93
2018-04-24T13:52:47.772Z,31.57
2018-04-24T13:55:15.229Z,32.73
2018-04-24T13:57:42.645Z,32.50
2018-04-24T14:00:10.079Z,31.47
2018-04-24T14:02:37.492Z,31.37
2018-04-24T14:05:04.923Z,30.60
2018-04-24T14:07:32.335Z,29.00
2018-04-24T14:10:00.157Z,28.27
2018-04-24T14:12:27.568Z,29.77
2018-04-24T14:14:55.000Z,29.47
2018-04-24T14:17:22.437Z,30.23
2018-04-24T14:19:49.839Z,32.03
2018-04-24T14:22:17.297Z,28.97
2018-04-24T14:24:44.700Z,29.30
2018-04-24T14:27:12.138Z,28.23
2018-04-24T14:29:39.552Z,26.93
2018-04-24T14:32:07.663Z,29.30
2018-04-24T14:34:35.072Z,26.93
2018-04-24T14:37:02.505Z,28.50
2018-04-24T14:39:29.948Z,26.50
2018-04-24T14:41:57.392Z,27.37
2018-04-24T14:44:24.830Z,30.77
2018-04-24T14:46:52.239Z,29.83
2018-04-24T14:49:19.689Z,33.27
2018-04-24T14:51:47.214Z,30.77
2018-04-24T14:54:14.562Z,30.70
2018-04-24T14:56:41.980Z,30.20
2018-04-24T14:59:09.415Z,30.30
2018-04-24T15:01:36.844Z,32.60
2018-04-24T15:04:04.311Z,36.37
2018-04-24T15:06:46.635Z,32.03
2018-04-24T15:09:14.071Z,31.63
2018-04-24T15:11:41.484Z,33.80
2018-04-24T15:14:08.958Z,34.93
2018-04-24T15:16:36.366Z,33.70
2018-04-24T15:19:04.039Z,34.00
2018-04-24T15:21:31.472Z,36.17
2018-04-24T15:23:58.898Z,34.27
2018-04-24T15:26:26.600Z,31.70
2018-04-24T15:28:54.009Z,34.80
2018-04-24T15:31:21.430Z,31.47
2018-04-24T15:33:48.868Z,33.33
2018-04-24T15:36:16.328Z,32.20
2018-04-24T15:38:43.739Z,32.20
2018-04-24T15:41:11.185Z,31.23
2018-04-24T15:43:38.596Z,35.40
2018-04-24T15:46:06.050Z,34.43
2018-04-24T15:48:33.464Z,33.20
2018-04-24T15:51:01.247Z,33.47
2018-04-24T15:53:28.655Z,31.37
2018-04-24T15:55:56.084Z,31.63
2018-04-24T15:58:23.492Z,30.47
2018-04-24T16:00:50.904Z,32.60
2018-04-24T16:03:18.700Z,32.43
2018-04-24T16:05:46.157Z,31.97
2018-04-24T16:08:13.572Z,33.97
2018-04-24T16:10:41.007Z,30.53
2018-04-24T16:13:08.431Z,30.83
2018-04-24T16:15:35.851Z,31.37
2018-04-24T16:18:03.624Z,30.97
2018-04-24T16:20:31.038Z,29.30
2018-04-24T16:22:58.455Z,27.60
2018-04-24T16:25:25.883Z,30.37
2018-04-24T16:27:53.299Z,29.07
2018-04-24T16:30:20.768Z,26.50
2018-04-24T16:32:48.176Z,25.40
2018-04-24T16:35:15.614Z,26.77
2018-04-24T16:37:43.036Z,25.37
2018-04-24T16:40:10.443Z,24.43
2018-04-24T16:42:37.864Z,24.37
2018-04-24T16:45:05.278Z,23.30
2018-04-24T16:47:32.732Z,22.97
2018-04-24T16:50:00.173Z,23.23
2018-04-24T16:52:27.584Z,25.63
2018-04-24T16:54:55.020Z,23.70
2018-04-24T16:57:22.428Z,23.77
2018-04-24T16:59:49.884Z,23.40
2018-04-24T17:02:17.304Z,22.87
2018-04-24T17:04:45.036Z,23.13
2018-04-24T17:07:12.446Z,22.10
2018-04-24T17:09:39.860Z,23.33
2018-04-24T17:12:07.304Z,21.87
2018-04-24T17:14:34.712Z,19.87
2018-04-24T17:17:02.147Z,21.63
2018-04-24T17:19:29.585Z,18.90
2018-04-24T17:21:57.276Z,22.53
2018-04-24T17:24:24.698Z,18.50
2018-04-24T17:26:52.124Z,17.47
2018-04-24T17:29:19.621Z,18.30
2018-04-24T17:31:47.037Z,17.33
2018-04-24T17:34:14.472Z,19.63
2018-04-24T17:36:41.903Z,14.97
2018-04-24T17:39:09.307Z,16.97
2018-04-24T17:41:36.791Z,15.77
2018-04-24T17:44:04.211Z,15.63
2018-04-24T17:46:31.653Z,17.47
2018-04-24T17:48:59.061Z,15.27
2018-04-24T17:51:26.500Z,15.37
2018-04-24T17:53:53.908Z,16.50
2018-04-24T17:56:22.043Z,17.07
2018-04-24T17:58:49.475Z,16.00
2018-04-24T18:01:16.884Z,15.13
2018-04-24T18:03:44.316Z,14.60
2018-04-24T18:06:11.720Z,16.20
2018-04-24T18:08:39.143Z,16.50
2018-04-24T18:11:06.630Z,16.10
2018-04-24T18:13:34.057Z,17.10
2018-04-24T18:16:01.468Z,16.70
2018-04-24T18:18:28.898Z,16.93
2018-04-24T18:20:56.317Z,17.73
2018-04-24T18:23:24.181Z,20.27
2018-04-24T18:25:51.628Z,21.93
2018-04-24T18:28:19.158Z,26.03
2018-04-24T18:30:46.588Z,21.27
2018-04-24T18:33:14.008Z,19.53
2018-04-24T18:38:32.779Z,20.10
2018-04-24T18:41:00.191Z,18.83
2018-04-24T18:43:27.619Z,19.70
2018-04-24T18:45:55.047Z,19.87
2018-04-24T18:48:22.469Z,22.07
2018-04-24T18:50:49.970Z,23.07
2018-04-24T18:53:17.387Z,19.50
2018-04-24T18:55:44.813Z,21.03
2018-04-24T18:58:12.239Z,19.90
2018-04-24T19:00:39.647Z,25.40
2018-04-24T19:03:07.075Z,22.97
2018-04-24T19:05:34.507Z,23.43
2018-04-24T19:08:02.018Z,23.57
2018-04-24T19:10:29.992Z,25.03
2018-04-24T19:12:57.649Z,30.43
2018-04-24T19:15:25.080Z,22.10
2018-04-24T19:17:52.523Z,25.60
2018-04-24T19:20:19.960Z,36.43
2018-04-24T19:22:47.484Z,30.67
2018-04-24T19:25:20.463Z,23.30
2018-04-24T19:27:47.910Z,25.73
2018-04-24T19:30:15.394Z,24.87
2018-04-24T19:32:42.835Z,24.67
2018-04-24T19:35:10.275Z,27.50
2018-04-24T19:37:37.995Z,29.60
2018-04-24T19:40:11.175Z,30.67
2018-04-24T19:42:38.647Z,27.27
2018-04-24T19:45:06.316Z,31.90
2018-04-24T19:47:33.723Z,31.93
2018-04-24T19:50:06.694Z,27.00
2018-04-24T19:52:34.123Z,28.67
2018-04-24T19:55:07.463Z,29.37
2018-04-24T19:57:34.880Z,32.03
2018-04-24T20:00:02.314Z,29.97
2018-04-24T20:02:30.078Z,32.33
2018-04-24T20:04:57.491Z,35.47
2018-04-24T20:07:24.913Z,31.53
2018-04-24T20:09:52.345Z,30.10
2018-04-24T20:12:19.752Z,36.13
2018-04-24T20:14:47.196Z,41.27
2018-04-24T20:17:14.604Z,42.30
2018-04-24T20:19:42.030Z,41.37
2018-04-24T20:22:09.465Z,42.50
2018-04-24T20:24:36.951Z,43.17
2018-04-24T20:27:04.364Z,45.87
2018-04-24T20:29:31.791Z,44.83
2018-04-24T20:31:59.217Z,42.13
2018-04-24T20:34:26.636Z,48.73
2018-04-24T20:36:54.060Z,47.47
2018-04-24T20:39:21.483Z,45.30
2018-04-24T20:41:48.919Z,50.40
2018-04-24T20:44:16.328Z,50.30
2018-04-24T20:46:44.703Z,48.70
2018-04-24T20:49:12.107Z,49.47
2018-04-24T20:51:39.681Z,53.03
2018-04-24T20:54:07.130Z,51.70
2018-04-24T20:56:34.666Z,50.20
2018-04-24T20:59:02.098Z,50.53
2018-04-24T21:01:29.508Z,49.30
2018-04-24T21:03:56.923Z,49.77
2018-04-24T21:06:24.596Z,49.67
2018-04-24T21:08:52.050Z,49.67
2018-04-24T21:11:19.450Z,43.33
2018-04-24T21:13:46.896Z,43.97
2018-04-24T21:16:14.304Z,40.60
2018-04-24T21:18:41.720Z,43.60
2018-04-24T21:21:09.140Z,46.87
2018-04-24T21:23:36.560Z,42.33
2018-04-24T21:26:04.029Z,43.70
2018-04-24T21:28:31.398Z,42.47
2018-04-24T21:30:58.809Z,42.37
2018-04-24T21:33:26.605Z,41.10
2018-04-24T21:35:53.973Z,42.60
2018-04-24T21:38:21.388Z,35.37
2018-04-24T21:40:48.956Z,38.93
2018-04-24T21:43:16.364Z,40.87
2018-04-24T21:45:43.772Z,36.70
2018-04-24T21:48:11.188Z,40.23
2018-04-24T21:50:38.602Z,39.87
2018-04-24T21:53:06.044Z,37.10
2018-04-24T21:55:33.456Z,36.43
2018-04-24T21:58:00.871Z,41.23
2018-04-24T22:00:28.295Z,38.57
2018-04-24T22:02:55.709Z,39.47
2018-04-24T22:05:23.479Z,40.77
2018-04-24T22:07:50.893Z,39.20
2018-04-24T22:10:18.297Z,39.20
2018-04-24T22:12:45.721Z,39.67
2018-04-24T22:15:13.135Z,37.47
2018-04-24T22:17:40.560Z,37.93
2018-04-24T22:20:07.996Z,40.00
2018-04-24T22:22:35.402Z,40.37
2018-04-24T22:25:02.800Z,39.93
2018-04-24T22:27:30.490Z,39.00
2018-04-24T22:29:57.901Z,39.13
2018-04-24T22:32:25.341Z,37.23
2018-04-24T22:34:52.751Z,39.67
2018-04-24T22:37:20.161Z,40.67
2018-04-24T22:39:47.594Z,41.50
2018-04-24T22:42:15.013Z,41.53
2018-04-24T22:44:42.446Z,40.83
2018-04-24T22:47:09.864Z,39.93
2018-04-24T22:49:37.304Z,42.27
2018-04-24T22:52:04.724Z,43.23
2018-04-24T22:54:32.128Z,41.13
2018-04-24T22:56:59.557Z,40.03
2018-04-24T22:59:27.319Z,40.07
2018-04-24T23:01:54.719Z,41.37
2018-04-24T23:04:22.161Z,41.27
2018-04-24T23:06:49.908Z,40.70
2018-04-24T23:09:17.320Z,38.97
2018-04-24T23:11:56.940Z,39.17
2018-04-24T23:14:35.916Z,38.97
2018-04-24T23:17:15.223Z,40.30
2018-04-24T23:19:54.523Z,39.70
2018-04-24T23:22:31.407Z,40.27
2018-04-24T23:24:58.848Z,40.60
2018-04-24T23:27:26.270Z,38.80
2018-04-24T23:29:53.684Z,39.40
2018-04-24T23:32:21.098Z,41.90
2018-04-24T23:34:48.545Z,37.57
2018-04-24T23:37:15.951Z,39.93
2018-04-24T23:39:43.372Z,37.47
2018-04-24T23:42:10.784Z,37.67
2018-04-24T23:44:38.212Z,39.37
2018-04-24T23:47:05.640Z,37.20
2018-04-24T23:49:33.071Z,41.03
2018-04-24T23:52:00.476Z,37.80
2018-04-24T23:54:27.899Z,38.00
2018-04-24T23:56:55.303Z,37.87
2018-04-24T23:59:22.723Z,38.47
